sensor_id;sensor_type;location;lat;lon;timestamp;P1;durP1;ratioP1;P2;durP2;ratioP2
38111;SDS011;64011;56.312;44.048;2023-05-29T00:01:45;10.98;;;3.75;;
38111;SDS011;64011;56.312;44.048;2023-05-29T00:03:45;11.13;;;3.45;;
38111;SDS011;64011;56.312;44.048;2023-05-29T00:05:48;9.55;;;3.65;;
38111;SDS011;64011;56.312;44.048;2023-05-29T00:07:48;11.10;;;3.90;;
38111;SDS011;64011;56.312;44.048;2023-05-29T00:09:49;11.45;;;4.13;;
38111;SDS011;64011;56.312;44.048;2023-05-29T00:11:50;10.10;;;3.42;;
38111;SDS011;64011;56.312;44.048;2023-05-29T00:13:51;11.10;;;4.15;;
38111;SDS011;64011;56.312;44.048;2023-05-29T00:15:52;11.55;;;3.47;;
38111;SDS011;64011;56.312;44.048;2023-05-29T00:17:53;10.75;;;3.25;;
38111;SDS011;64011;56.312;44.048;2023-05-29T00:19:55;8.38;;;3.50;;
38111;SDS011;64011;56.312;44.048;2023-05-29T00:21:57;11.73;;;3.45;;
38111;SDS011;64011;56.312;44.048;2023-05-29T00:23:58;9.27;;;3.13;;
38111;SDS011;64011;56.312;44.048;2023-05-29T00:25:59;10.90;;;3.20;;
38111;SDS011;64011;56.312;44.048;2023-05-29T00:27:59;8.75;;;3.03;;
38111;SDS011;64011;56.312;44.048;2023-05-29T00:30:00;9.02;;;2.92;;
38111;SDS011;64011;56.312;44.048;2023-05-29T00:32:05;11.07;;;3.17;;
38111;SDS011;64011;56.312;44.048;2023-05-29T00:34:06;9.48;;;3.13;;
38111;SDS011;64011;56.312;44.048;2023-05-29T00:36:07;10.27;;;3.00;;
38111;SDS011;64011;56.312;44.048;2023-05-29T00:38:10;8.00;;;2.97;;
38111;SDS011;64011;56.312;44.048;2023-05-29T00:40:11;10.35;;;2.97;;
38111;SDS011;64011;56.312;44.048;2023-05-29T00:42:12;9.98;;;3.05;;
38111;SDS011;64011;56.312;44.048;2023-05-29T00:44:12;9.57;;;3.25;;
38111;SDS011;64011;56.312;44.048;2023-05-29T00:46:14;8.93;;;2.80;;
38111;SDS011;64011;56.312;44.048;2023-05-29T00:48:16;9.10;;;2.78;;
38111;SDS011;64011;56.312;44.048;2023-05-29T00:50:17;8.50;;;2.80;;
38111;SDS011;64011;56.312;44.048;2023-05-29T00:52:18;7.75;;;2.78;;
38111;SDS011;64011;56.312;44.048;2023-05-29T00:54:21;8.02;;;2.58;;
38111;SDS011;64011;56.312;44.048;2023-05-29T00:56:26;9.25;;;3.05;;
38111;SDS011;64011;56.312;44.048;2023-05-29T00:58:26;9.63;;;2.65;;
38111;SDS011;64011;56.312;44.048;2023-05-29T01:00:28;10.27;;;2.67;;
38111;SDS011;64011;56.312;44.048;2023-05-29T01:02:28;6.28;;;2.60;;
38111;SDS011;64011;56.312;44.048;2023-05-29T01:04:29;8.02;;;2.83;;
38111;SDS011;64011;56.312;44.048;2023-05-29T01:06:30;6.65;;;2.67;;
38111;SDS011;64011;56.312;44.048;2023-05-29T01:08:31;8.20;;;2.88;;
38111;SDS011;64011;56.312;44.048;2023-05-29T01:10:33;9.20;;;2.88;;
38111;SDS011;64011;56.312;44.048;2023-05-29T01:12:36;8.48;;;2.60;;
38111;SDS011;64011;56.312;44.048;2023-05-29T01:14:50;8.05;;;2.78;;
38111;SDS011;64011;56.312;44.048;2023-05-29T01:16:59;7.03;;;2.67;;
38111;SDS011;64011;56.312;44.048;2023-05-29T01:19:06;7.57;;;2.47;;
38111;SDS011;64011;56.312;44.048;2023-05-29T01:21:16;8.77;;;2.75;;
38111;SDS011;64011;56.312;44.048;2023-05-29T01:26:11;7.60;;;2.67;;
38111;SDS011;64011;56.312;44.048;2023-05-29T01:28:37;7.03;;;2.78;;
38111;SDS011;64011;56.312;44.048;2023-05-29T01:30:41;7.68;;;2.50;;
38111;SDS011;64011;56.312;44.048;2023-05-29T01:32:42;8.90;;;2.78;;
38111;SDS011;64011;56.312;44.048;2023-05-29T01:34:43;9.18;;;2.88;;
38111;SDS011;64011;56.312;44.048;2023-05-29T01:36:44;14.80;;;3.67;;
38111;SDS011;64011;56.312;44.048;2023-05-29T01:38:45;9.00;;;2.95;;
38111;SDS011;64011;56.312;44.048;2023-05-29T01:40:46;8.68;;;3.05;;
38111;SDS011;64011;56.312;44.048;2023-05-29T01:42:48;8.27;;;3.28;;
38111;SDS011;64011;56.312;44.048;2023-05-29T01:44:50;10.88;;;3.85;;
38111;SDS011;64011;56.312;44.048;2023-05-29T01:46:51;9.35;;;3.70;;
38111;SDS011;64011;56.312;44.048;2023-05-29T01:48:52;11.93;;;3.53;;
38111;SDS011;64011;56.312;44.048;2023-05-29T01:50:54;14.00;;;4.13;;
38111;SDS011;64011;56.312;44.048;2023-05-29T01:52:55;12.48;;;3.75;;
38111;SDS011;64011;56.312;44.048;2023-05-29T01:54:56;14.00;;;4.10;;
38111;SDS011;64011;56.312;44.048;2023-05-29T01:56:56;14.85;;;5.05;;
38111;SDS011;64011;56.312;44.048;2023-05-29T01:58:59;12.88;;;4.20;;
38111;SDS011;64011;56.312;44.048;2023-05-29T02:01:02;11.93;;;4.30;;
38111;SDS011;64011;56.312;44.048;2023-05-29T02:03:03;14.57;;;5.10;;
38111;SDS011;64011;56.312;44.048;2023-05-29T02:05:04;15.23;;;4.70;;
38111;SDS011;64011;56.312;44.048;2023-05-29T02:07:06;13.35;;;4.47;;
38111;SDS011;64011;56.312;44.048;2023-05-29T02:09:06;12.77;;;4.43;;
38111;SDS011;64011;56.312;44.048;2023-05-29T02:11:07;11.75;;;4.47;;
38111;SDS011;64011;56.312;44.048;2023-05-29T02:13:08;13.82;;;4.30;;
38111;SDS011;64011;56.312;44.048;2023-05-29T02:15:11;10.77;;;3.70;;
38111;SDS011;64011;56.312;44.048;2023-05-29T02:17:12;10.98;;;3.75;;
38111;SDS011;64011;56.312;44.048;2023-05-29T02:19:13;11.15;;;3.85;;
38111;SDS011;64011;56.312;44.048;2023-05-29T02:21:14;11.82;;;3.78;;
38111;SDS011;64011;56.312;44.048;2023-05-29T02:23:15;11.45;;;4.47;;
38111;SDS011;64011;56.312;44.048;2023-05-29T02:25:15;13.13;;;4.00;;
38111;SDS011;64011;56.312;44.048;2023-05-29T02:27:16;12.90;;;3.85;;
38111;SDS011;64011;56.312;44.048;2023-05-29T02:29:17;10.18;;;3.45;;
38111;SDS011;64011;56.312;44.048;2023-05-29T02:31:19;9.63;;;3.58;;
38111;SDS011;64011;56.312;44.048;2023-05-29T02:33:20;11.13;;;3.75;;
38111;SDS011;64011;56.312;44.048;2023-05-29T02:35:21;11.20;;;3.55;;
38111;SDS011;64011;56.312;44.048;2023-05-29T02:37:22;11.18;;;3.80;;
38111;SDS011;64011;56.312;44.048;2023-05-29T02:39:23;10.43;;;3.88;;
38111;SDS011;64011;56.312;44.048;2023-05-29T02:41:23;11.93;;;3.33;;
38111;SDS011;64011;56.312;44.048;2023-05-29T02:43:24;9.35;;;3.80;;
38111;SDS011;64011;56.312;44.048;2023-05-29T02:45:25;10.85;;;4.05;;
38111;SDS011;64011;56.312;44.048;2023-05-29T02:47:27;8.38;;;3.42;;
38111;SDS011;64011;56.312;44.048;2023-05-29T02:49:28;16.92;;;3.90;;
38111;SDS011;64011;56.312;44.048;2023-05-29T02:51:29;10.60;;;3.60;;
38111;SDS011;64011;56.312;44.048;2023-05-29T02:53:30;12.38;;;4.28;;
38111;SDS011;64011;56.312;44.048;2023-05-29T02:55:31;12.98;;;3.88;;
38111;SDS011;64011;56.312;44.048;2023-05-29T02:57:32;12.55;;;3.88;;
38111;SDS011;64011;56.312;44.048;2023-05-29T02:59:33;10.70;;;3.38;;
38111;SDS011;64011;56.312;44.048;2023-05-29T03:01:34;12.07;;;3.58;;
38111;SDS011;64011;56.312;44.048;2023-05-29T03:03:36;11.13;;;3.40;;
38111;SDS011;64011;56.312;44.048;2023-05-29T03:05:37;9.63;;;3.70;;
38111;SDS011;64011;56.312;44.048;2023-05-29T03:07:38;14.13;;;3.90;;
38111;SDS011;64011;56.312;44.048;2023-05-29T03:09:39;14.80;;;4.43;;
38111;SDS011;64011;56.312;44.048;2023-05-29T03:11:39;9.70;;;3.45;;
38111;SDS011;64011;56.312;44.048;2023-05-29T03:13:40;10.75;;;3.78;;
38111;SDS011;64011;56.312;44.048;2023-05-29T03:15:41;9.77;;;3.60;;
38111;SDS011;64011;56.312;44.048;2023-05-29T03:17:42;10.65;;;3.63;;
38111;SDS011;64011;56.312;44.048;2023-05-29T03:19:44;8.77;;;3.40;;
38111;SDS011;64011;56.312;44.048;2023-05-29T03:21:45;10.90;;;3.85;;
38111;SDS011;64011;56.312;44.048;2023-05-29T03:23:46;9.68;;;3.70;;
38111;SDS011;64011;56.312;44.048;2023-05-29T03:25:47;12.20;;;3.63;;
38111;SDS011;64011;56.312;44.048;2023-05-29T03:27:47;12.07;;;3.72;;
38111;SDS011;64011;56.312;44.048;2023-05-29T03:29:48;10.95;;;3.30;;
38111;SDS011;64011;56.312;44.048;2023-05-29T03:31:49;9.23;;;3.10;;
38111;SDS011;64011;56.312;44.048;2023-05-29T03:33:50;7.28;;;3.03;;
38111;SDS011;64011;56.312;44.048;2023-05-29T03:35:52;9.75;;;3.55;;
38111;SDS011;64011;56.312;44.048;2023-05-29T03:37:53;10.48;;;3.72;;
38111;SDS011;64011;56.312;44.048;2023-05-29T03:39:54;12.25;;;3.47;;
38111;SDS011;64011;56.312;44.048;2023-05-29T03:41:55;10.63;;;3.22;;
38111;SDS011;64011;56.312;44.048;2023-05-29T03:43:56;10.18;;;3.10;;
38111;SDS011;64011;56.312;44.048;2023-05-29T03:45:56;9.27;;;3.30;;
38111;SDS011;64011;56.312;44.048;2023-05-29T03:47:57;19.88;;;10.75;;
38111;SDS011;64011;56.312;44.048;2023-05-29T03:49:58;9.77;;;3.40;;
38111;SDS011;64011;56.312;44.048;2023-05-29T03:52:00;9.25;;;2.95;;
38111;SDS011;64011;56.312;44.048;2023-05-29T03:54:01;7.82;;;2.67;;
38111;SDS011;64011;56.312;44.048;2023-05-29T03:56:02;11.60;;;3.42;;
38111;SDS011;64011;56.312;44.048;2023-05-29T03:58:03;13.68;;;3.33;;
38111;SDS011;64011;56.312;44.048;2023-05-29T04:00:04;7.28;;;2.90;;
38111;SDS011;64011;56.312;44.048;2023-05-29T04:02:07;9.88;;;2.70;;
38111;SDS011;64011;56.312;44.048;2023-05-29T04:04:08;9.45;;;2.83;;
38111;SDS011;64011;56.312;44.048;2023-05-29T04:06:08;9.50;;;3.05;;
38111;SDS011;64011;56.312;44.048;2023-05-29T04:08:11;16.40;;;7.28;;
38111;SDS011;64011;56.312;44.048;2023-05-29T04:10:11;9.88;;;3.05;;
38111;SDS011;64011;56.312;44.048;2023-05-29T04:12:12;6.47;;;2.65;;
38111;SDS011;64011;56.312;44.048;2023-05-29T04:14:13;8.88;;;2.70;;
38111;SDS011;64011;56.312;44.048;2023-05-29T04:16:14;6.88;;;2.67;;
38111;SDS011;64011;56.312;44.048;2023-05-29T04:18:15;7.00;;;2.45;;
38111;SDS011;64011;56.312;44.048;2023-05-29T04:20:16;11.23;;;2.80;;
38111;SDS011;64011;56.312;44.048;2023-05-29T04:22:16;8.93;;;2.92;;
38111;SDS011;64011;56.312;44.048;2023-05-29T04:24:19;7.97;;;3.15;;
38111;SDS011;64011;56.312;44.048;2023-05-29T04:26:21;11.38;;;2.83;;
38111;SDS011;64011;56.312;44.048;2023-05-29T04:28:22;6.82;;;2.38;;
38111;SDS011;64011;56.312;44.048;2023-05-29T04:30:23;8.15;;;2.75;;
38111;SDS011;64011;56.312;44.048;2023-05-29T04:32:24;9.25;;;2.88;;
38111;SDS011;64011;56.312;44.048;2023-05-29T04:34:25;8.52;;;2.80;;
38111;SDS011;64011;56.312;44.048;2023-05-29T04:36:26;7.03;;;2.67;;
38111;SDS011;64011;56.312;44.048;2023-05-29T04:38:28;8.90;;;2.40;;
38111;SDS011;64011;56.312;44.048;2023-05-29T04:40:30;6.63;;;2.53;;
38111;SDS011;64011;56.312;44.048;2023-05-29T04:42:31;7.55;;;2.20;;
38111;SDS011;64011;56.312;44.048;2023-05-29T04:44:32;9.18;;;2.40;;
38111;SDS011;64011;56.312;44.048;2023-05-29T04:46:32;9.90;;;2.70;;
38111;SDS011;64011;56.312;44.048;2023-05-29T04:48:33;8.55;;;2.60;;
38111;SDS011;64011;56.312;44.048;2023-05-29T04:50:34;9.13;;;2.33;;
38111;SDS011;64011;56.312;44.048;2023-05-29T04:52:35;7.40;;;2.80;;
38111;SDS011;64011;56.312;44.048;2023-05-29T04:54:36;7.95;;;2.70;;
38111;SDS011;64011;56.312;44.048;2023-05-29T04:56:39;7.90;;;3.03;;
38111;SDS011;64011;56.312;44.048;2023-05-29T04:58:39;8.10;;;2.78;;
38111;SDS011;64011;56.312;44.048;2023-05-29T05:00:40;9.30;;;2.40;;
38111;SDS011;64011;56.312;44.048;2023-05-29T05:02:41;9.50;;;2.67;;
38111;SDS011;64011;56.312;44.048;2023-05-29T05:04:42;5.35;;;2.17;;
38111;SDS011;64011;56.312;44.048;2023-05-29T05:06:43;7.55;;;2.35;;
38111;SDS011;64011;56.312;44.048;2023-05-29T05:08:44;6.75;;;2.40;;
38111;SDS011;64011;56.312;44.048;2023-05-29T05:10:45;7.53;;;2.47;;
38111;SDS011;64011;56.312;44.048;2023-05-29T05:12:47;10.23;;;2.58;;
38111;SDS011;64011;56.312;44.048;2023-05-29T05:14:48;7.07;;;2.67;;
38111;SDS011;64011;56.312;44.048;2023-05-29T05:16:50;8.48;;;2.78;;
38111;SDS011;64011;56.312;44.048;2023-05-29T05:18:51;9.18;;;2.92;;
38111;SDS011;64011;56.312;44.048;2023-05-29T05:20:52;8.30;;;2.50;;
38111;SDS011;64011;56.312;44.048;2023-05-29T05:22:53;10.32;;;3.00;;
38111;SDS011;64011;56.312;44.048;2023-05-29T05:24:53;7.70;;;2.67;;
38111;SDS011;64011;56.312;44.048;2023-05-29T05:26:54;8.10;;;2.53;;
38111;SDS011;64011;56.312;44.048;2023-05-29T05:28:57;8.63;;;2.67;;
38111;SDS011;64011;56.312;44.048;2023-05-29T05:30:57;8.20;;;2.75;;
38111;SDS011;64011;56.312;44.048;2023-05-29T05:32:58;7.18;;;2.75;;
38111;SDS011;64011;56.312;44.048;2023-05-29T05:34:59;9.35;;;2.72;;
38111;SDS011;64011;56.312;44.048;2023-05-29T05:37:00;6.82;;;2.67;;
38111;SDS011;64011;56.312;44.048;2023-05-29T05:39:01;9.45;;;2.95;;
38111;SDS011;64011;56.312;44.048;2023-05-29T05:41:02;7.80;;;2.72;;
38111;SDS011;64011;56.312;44.048;2023-05-29T05:43:03;12.48;;;2.88;;
38111;SDS011;64011;56.312;44.048;2023-05-29T05:45:05;9.60;;;3.08;;
38111;SDS011;64011;56.312;44.048;2023-05-29T05:47:07;8.80;;;3.10;;
38111;SDS011;64011;56.312;44.048;2023-05-29T05:49:08;9.43;;;2.88;;
38111;SDS011;64011;56.312;44.048;2023-05-29T05:51:09;8.60;;;2.97;;
38111;SDS011;64011;56.312;44.048;2023-05-29T05:53:10;8.85;;;3.00;;
38111;SDS011;64011;56.312;44.048;2023-05-29T05:55:11;8.95;;;3.17;;
38111;SDS011;64011;56.312;44.048;2023-05-29T05:57:12;9.18;;;2.90;;
38111;SDS011;64011;56.312;44.048;2023-05-29T05:59:13;11.80;;;3.38;;
38111;SDS011;64011;56.312;44.048;2023-05-29T06:01:15;10.50;;;3.17;;
38111;SDS011;64011;56.312;44.048;2023-05-29T06:03:16;8.90;;;2.97;;
38111;SDS011;64011;56.312;44.048;2023-05-29T06:05:17;10.15;;;3.45;;
38111;SDS011;64011;56.312;44.048;2023-05-29T06:07:18;10.32;;;2.88;;
38111;SDS011;64011;56.312;44.048;2023-05-29T06:09:18;9.43;;;3.13;;
38111;SDS011;64011;56.312;44.048;2023-05-29T06:11:19;12.00;;;3.67;;
38111;SDS011;64011;56.312;44.048;2023-05-29T06:13:20;11.07;;;3.40;;
38111;SDS011;64011;56.312;44.048;2023-05-29T06:15:21;10.75;;;3.20;;
38111;SDS011;64011;56.312;44.048;2023-05-29T06:17:23;11.60;;;3.22;;
38111;SDS011;64011;56.312;44.048;2023-05-29T06:19:24;8.05;;;2.72;;
38111;SDS011;64011;56.312;44.048;2023-05-29T06:21:25;9.70;;;3.28;;
38111;SDS011;64011;56.312;44.048;2023-05-29T06:23:26;11.50;;;3.10;;
38111;SDS011;64011;56.312;44.048;2023-05-29T06:25:27;11.00;;;3.28;;
38111;SDS011;64011;56.312;44.048;2023-05-29T06:27:28;13.35;;;3.33;;
38111;SDS011;64011;56.312;44.048;2023-05-29T06:29:29;10.65;;;3.00;;
38111;SDS011;64011;56.312;44.048;2023-05-29T06:31:29;10.18;;;3.63;;
38111;SDS011;64011;56.312;44.048;2023-05-29T06:33:32;12.13;;;3.42;;
38111;SDS011;64011;56.312;44.048;2023-05-29T06:35:33;10.55;;;3.75;;
38111;SDS011;64011;56.312;44.048;2023-05-29T06:37:34;11.27;;;3.25;;
38111;SDS011;64011;56.312;44.048;2023-05-29T06:39:34;12.45;;;3.50;;
38111;SDS011;64011;56.312;44.048;2023-05-29T06:41:35;12.95;;;3.38;;
38111;SDS011;64011;56.312;44.048;2023-05-29T06:43:36;11.68;;;2.95;;
38111;SDS011;64011;56.312;44.048;2023-05-29T18:27:56;29.17;;;13.75;;
38111;SDS011;64011;56.312;44.048;2023-05-29T18:29:57;28.05;;;9.70;;
38111;SDS011;64011;56.312;44.048;2023-05-29T18:31:58;28.77;;;10.43;;
38111;SDS011;64011;56.312;44.048;2023-05-29T18:33:59;27.40;;;9.20;;
38111;SDS011;64011;56.312;44.048;2023-05-29T18:36:00;28.83;;;9.73;;
38111;SDS011;64011;56.312;44.048;2023-05-29T18:38:01;29.02;;;10.50;;
38111;SDS011;64011;56.312;44.048;2023-05-29T18:40:02;29.30;;;10.05;;
38111;SDS011;64011;56.312;44.048;2023-05-29T18:42:05;26.98;;;9.68;;
38111;SDS011;64011;56.312;44.048;2023-05-29T18:44:08;29.50;;;10.48;;
38111;SDS011;64011;56.312;44.048;2023-05-29T18:46:09;28.77;;;10.40;;
38111;SDS011;64011;56.312;44.048;2023-05-29T18:48:10;32.25;;;11.02;;
38111;SDS011;64011;56.312;44.048;2023-05-29T18:50:11;34.03;;;10.25;;
38111;SDS011;64011;56.312;44.048;2023-05-29T18:52:12;31.80;;;11.43;;
38111;SDS011;64011;56.312;44.048;2023-05-29T18:54:14;30.15;;;11.02;;
38111;SDS011;64011;56.312;44.048;2023-05-29T18:56:15;24.77;;;9.52;;
38111;SDS011;64011;56.312;44.048;2023-05-29T18:58:16;29.80;;;10.82;;
38111;SDS011;64011;56.312;44.048;2023-05-29T19:00:19;30.15;;;10.52;;
38111;SDS011;64011;56.312;44.048;2023-05-29T19:02:20;33.83;;;11.15;;
38111;SDS011;64011;56.312;44.048;2023-05-29T19:04:21;29.88;;;10.40;;
38111;SDS011;64011;56.312;44.048;2023-05-29T19:06:22;31.90;;;10.13;;
38111;SDS011;64011;56.312;44.048;2023-05-29T19:08:23;29.60;;;10.73;;
38111;SDS011;64011;56.312;44.048;2023-05-29T19:10:24;28.05;;;10.60;;
38111;SDS011;64011;56.312;44.048;2023-05-29T19:12:25;29.35;;;11.77;;
38111;SDS011;64011;56.312;44.048;2023-05-29T19:14:26;41.33;;;15.45;;
38111;SDS011;64011;56.312;44.048;2023-05-29T19:16:28;28.60;;;10.15;;
38111;SDS011;64011;56.312;44.048;2023-05-29T19:18:31;26.60;;;10.40;;
38111;SDS011;64011;56.312;44.048;2023-05-29T19:20:32;26.58;;;10.27;;
38111;SDS011;64011;56.312;44.048;2023-05-29T19:22:33;34.30;;;10.38;;
38111;SDS011;64011;56.312;44.048;2023-05-29T19:24:34;31.30;;;14.77;;
38111;SDS011;64011;56.312;44.048;2023-05-29T19:26:35;38.13;;;10.65;;
38111;SDS011;64011;56.312;44.048;2023-05-29T19:28:36;29.35;;;9.07;;
38111;SDS011;64011;56.312;44.048;2023-05-29T19:30:37;28.08;;;9.82;;
38111;SDS011;64011;56.312;44.048;2023-05-29T19:32:40;23.95;;;9.02;;
38111;SDS011;64011;56.312;44.048;2023-05-29T19:34:41;29.33;;;9.63;;
38111;SDS011;64011;56.312;44.048;2023-05-29T19:36:42;25.17;;;8.85;;
38111;SDS011;64011;56.312;44.048;2023-05-29T19:38:43;29.80;;;10.10;;
38111;SDS011;64011;56.312;44.048;2023-05-29T19:40:44;31.58;;;9.70;;
38111;SDS011;64011;56.312;44.048;2023-05-29T19:42:45;25.73;;;9.15;;
38111;SDS011;64011;56.312;44.048;2023-05-29T19:44:46;30.75;;;9.50;;
38111;SDS011;64011;56.312;44.048;2023-05-29T19:46:47;31.58;;;9.95;;
38111;SDS011;64011;56.312;44.048;2023-05-29T19:48:50;22.40;;;7.35;;
38111;SDS011;64011;56.312;44.048;2023-05-29T19:50:51;22.52;;;7.55;;
38111;SDS011;64011;56.312;44.048;2023-05-29T19:52:52;23.70;;;8.68;;
38111;SDS011;64011;56.312;44.048;2023-05-29T19:54:53;30.77;;;9.95;;
38111;SDS011;64011;56.312;44.048;2023-05-29T19:56:54;26.67;;;9.13;;
38111;SDS011;64011;56.312;44.048;2023-05-29T19:58:55;23.75;;;9.25;;
38111;SDS011;64011;56.312;44.048;2023-05-29T20:00:56;27.65;;;10.52;;
38111;SDS011;64011;56.312;44.048;2023-05-29T20:02:57;26.02;;;9.95;;
38111;SDS011;64011;56.312;44.048;2023-05-29T20:05:00;26.23;;;9.73;;
38111;SDS011;64011;56.312;44.048;2023-05-29T20:07:00;31.65;;;12.52;;
38111;SDS011;64011;56.312;44.048;2023-05-29T20:09:02;32.28;;;12.25;;
38111;SDS011;64011;56.312;44.048;2023-05-29T20:11:03;27.45;;;11.05;;
38111;SDS011;64011;56.312;44.048;2023-05-29T20:13:04;31.13;;;11.00;;
38111;SDS011;64011;56.312;44.048;2023-05-29T20:15:05;30.65;;;11.75;;
38111;SDS011;64011;56.312;44.048;2023-05-29T20:17:09;32.65;;;12.23;;
38111;SDS011;64011;56.312;44.048;2023-05-29T20:19:10;38.20;;;12.52;;
38111;SDS011;64011;56.312;44.048;2023-05-29T20:21:12;28.08;;;11.60;;
38111;SDS011;64011;56.312;44.048;2023-05-29T20:23:13;27.92;;;11.30;;
38111;SDS011;64011;56.312;44.048;2023-05-29T20:25:14;31.52;;;14.98;;
38111;SDS011;64011;56.312;44.048;2023-05-29T20:27:15;28.05;;;10.32;;
38111;SDS011;64011;56.312;44.048;2023-05-29T20:29:16;31.67;;;11.02;;
38111;SDS011;64011;56.312;44.048;2023-05-29T20:31:17;28.15;;;10.32;;
38111;SDS011;64011;56.312;44.048;2023-05-29T20:33:18;28.98;;;9.75;;
38111;SDS011;64011;56.312;44.048;2023-05-29T20:35:19;29.45;;;9.65;;
38111;SDS011;64011;56.312;44.048;2023-05-29T20:37:22;30.40;;;9.52;;
38111;SDS011;64011;56.312;44.048;2023-05-29T20:39:23;24.63;;;9.43;;
38111;SDS011;64011;56.312;44.048;2023-05-29T20:41:24;26.02;;;9.18;;
38111;SDS011;64011;56.312;44.048;2023-05-29T20:43:25;27.52;;;10.68;;
38111;SDS011;64011;56.312;44.048;2023-05-29T20:45:26;33.97;;;14.48;;
38111;SDS011;64011;56.312;44.048;2023-05-29T20:47:27;27.30;;;12.27;;
38111;SDS011;64011;56.312;44.048;2023-05-29T20:49:28;28.40;;;10.65;;
38111;SDS011;64011;56.312;44.048;2023-05-29T20:51:29;29.67;;;9.80;;
38111;SDS011;64011;56.312;44.048;2023-05-29T20:53:31;28.48;;;9.70;;
38111;SDS011;64011;56.312;44.048;2023-05-29T20:55:32;27.65;;;9.35;;
38111;SDS011;64011;56.312;44.048;2023-05-29T20:57:33;36.83;;;10.02;;
38111;SDS011;64011;56.312;44.048;2023-05-29T20:59:35;25.65;;;9.20;;
38111;SDS011;64011;56.312;44.048;2023-05-29T21:01:36;25.25;;;9.77;;
38111;SDS011;64011;56.312;44.048;2023-05-29T21:03:37;25.60;;;8.85;;
38111;SDS011;64011;56.312;44.048;2023-05-29T21:05:38;29.20;;;9.55;;
38111;SDS011;64011;56.312;44.048;2023-05-29T21:07:39;28.98;;;10.80;;
38111;SDS011;64011;56.312;44.048;2023-05-29T21:09:41;25.35;;;9.38;;
38111;SDS011;64011;56.312;44.048;2023-05-29T21:11:42;24.00;;;8.02;;
38111;SDS011;64011;56.312;44.048;2023-05-29T21:13:43;28.33;;;10.48;;
38111;SDS011;64011;56.312;44.048;2023-05-29T21:15:44;27.52;;;9.50;;
38111;SDS011;64011;56.312;44.048;2023-05-29T21:17:45;28.15;;;9.55;;
38111;SDS011;64011;56.312;44.048;2023-05-29T21:19:46;28.80;;;9.98;;
38111;SDS011;64011;56.312;44.048;2023-05-29T21:21:47;32.55;;;9.75;;
38111;SDS011;64011;56.312;44.048;2023-05-29T21:23:48;32.50;;;9.55;;
38111;SDS011;64011;56.312;44.048;2023-05-29T21:25:50;26.92;;;9.38;;
38111;SDS011;64011;56.312;44.048;2023-05-29T21:27:51;24.13;;;9.63;;
38111;SDS011;64011;56.312;44.048;2023-05-29T21:29:52;22.92;;;9.82;;
38111;SDS011;64011;56.312;44.048;2023-05-29T21:31:53;28.45;;;9.52;;
38111;SDS011;64011;56.312;44.048;2023-05-29T21:33:55;25.75;;;9.65;;
38111;SDS011;64011;56.312;44.048;2023-05-29T21:35:55;29.00;;;10.32;;
38111;SDS011;64011;56.312;44.048;2023-05-29T21:37:56;26.48;;;9.13;;
38111;SDS011;64011;56.312;44.048;2023-05-29T21:39:57;26.48;;;9.23;;
38111;SDS011;64011;56.312;44.048;2023-05-29T21:42:00;25.30;;;9.32;;
38111;SDS011;64011;56.312;44.048;2023-05-29T21:44:01;27.17;;;10.50;;
38111;SDS011;64011;56.312;44.048;2023-05-29T21:46:02;23.67;;;9.02;;
38111;SDS011;64011;56.312;44.048;2023-05-29T21:48:04;24.77;;;8.95;;
38111;SDS011;64011;56.312;44.048;2023-05-29T21:50:05;26.10;;;9.52;;
38111;SDS011;64011;56.312;44.048;2023-05-29T21:52:07;31.90;;;10.43;;
38111;SDS011;64011;56.312;44.048;2023-05-29T21:54:08;32.25;;;11.18;;
38111;SDS011;64011;56.312;44.048;2023-05-29T21:56:09;31.35;;;10.95;;
38111;SDS011;64011;56.312;44.048;2023-05-29T21:58:11;28.02;;;10.30;;
38111;SDS011;64011;56.312;44.048;2023-05-29T22:00:13;24.00;;;8.98;;
38111;SDS011;64011;56.312;44.048;2023-05-29T22:02:14;25.45;;;8.98;;
38111;SDS011;64011;56.312;44.048;2023-05-29T22:04:15;26.77;;;9.30;;
38111;SDS011;64011;56.312;44.048;2023-05-29T22:06:17;23.23;;;8.95;;
38111;SDS011;64011;56.312;44.048;2023-05-29T22:08:18;30.85;;;8.43;;
38111;SDS011;64011;56.312;44.048;2023-05-29T22:10:19;24.83;;;8.55;;
38111;SDS011;64011;56.312;44.048;2023-05-29T22:12:21;24.92;;;8.65;;
38111;SDS011;64011;56.312;44.048;2023-05-29T22:14:23;22.83;;;9.00;;
38111;SDS011;64011;56.312;44.048;2023-05-29T22:16:24;24.75;;;9.85;;
38111;SDS011;64011;56.312;44.048;2023-05-29T22:18:25;25.48;;;10.40;;
38111;SDS011;64011;56.312;44.048;2023-05-29T22:20:26;34.85;;;9.95;;
38111;SDS011;64011;56.312;44.048;2023-05-29T22:22:27;25.67;;;9.23;;
38111;SDS011;64011;56.312;44.048;2023-05-29T22:24:28;24.80;;;8.20;;
38111;SDS011;64011;56.312;44.048;2023-05-29T22:26:29;29.90;;;10.05;;
38111;SDS011;64011;56.312;44.048;2023-05-29T22:28:30;28.42;;;9.10;;
38111;SDS011;64011;56.312;44.048;2023-05-29T22:30:33;26.70;;;9.10;;
38111;SDS011;64011;56.312;44.048;2023-05-29T22:32:34;27.58;;;9.38;;
38111;SDS011;64011;56.312;44.048;2023-05-29T22:34:35;24.80;;;9.38;;
38111;SDS011;64011;56.312;44.048;2023-05-29T22:36:36;26.90;;;9.00;;
38111;SDS011;64011;56.312;44.048;2023-05-29T22:38:37;23.65;;;8.93;;
38111;SDS011;64011;56.312;44.048;2023-05-29T22:40:38;26.40;;;9.57;;
38111;SDS011;64011;56.312;44.048;2023-05-29T22:42:39;26.48;;;9.70;;
38111;SDS011;64011;56.312;44.048;2023-05-29T22:44:40;28.83;;;9.75;;
38111;SDS011;64011;56.312;44.048;2023-05-29T22:46:42;26.35;;;9.10;;
38111;SDS011;64011;56.312;44.048;2023-05-29T22:48:44;28.20;;;10.27;;
38111;SDS011;64011;56.312;44.048;2023-05-29T22:50:45;34.33;;;11.32;;
38111;SDS011;64011;56.312;44.048;2023-05-29T22:52:47;31.05;;;10.35;;
38111;SDS011;64011;56.312;44.048;2023-05-29T22:54:48;26.83;;;9.57;;
38111;SDS011;64011;56.312;44.048;2023-05-29T22:56:49;29.75;;;9.50;;
38111;SDS011;64011;56.312;44.048;2023-05-29T22:58:50;23.67;;;8.43;;
38111;SDS011;64011;56.312;44.048;2023-05-29T23:00:51;25.92;;;8.57;;
38111;SDS011;64011;56.312;44.048;2023-05-29T23:02:53;25.13;;;8.95;;
38111;SDS011;64011;56.312;44.048;2023-05-29T23:04:55;24.70;;;9.75;;
38111;SDS011;64011;56.312;44.048;2023-05-29T23:06:56;25.33;;;9.45;;
38111;SDS011;64011;56.312;44.048;2023-05-29T23:08:57;26.50;;;9.90;;
38111;SDS011;64011;56.312;44.048;2023-05-29T23:10:58;27.35;;;9.18;;
38111;SDS011;64011;56.312;44.048;2023-05-29T23:13:00;30.20;;;9.57;;
38111;SDS011;64011;56.312;44.048;2023-05-29T23:15:01;22.90;;;7.90;;
38111;SDS011;64011;56.312;44.048;2023-05-29T23:17:08;12.30;;;4.30;;
38111;SDS011;64011;56.312;44.048;2023-05-29T23:19:10;28.42;;;9.50;;
38111;SDS011;64011;56.312;44.048;2023-05-29T23:21:11;29.77;;;9.10;;
38111;SDS011;64011;56.312;44.048;2023-05-29T23:23:12;23.83;;;8.32;;
38111;SDS011;64011;56.312;44.048;2023-05-29T23:25:13;22.02;;;8.02;;
38111;SDS011;64011;56.312;44.048;2023-05-29T23:27:15;23.50;;;7.60;;
38111;SDS011;64011;56.312;44.048;2023-05-29T23:29:16;24.77;;;8.43;;
38111;SDS011;64011;56.312;44.048;2023-05-29T23:31:17;20.98;;;7.40;;
38111;SDS011;64011;56.312;44.048;2023-05-29T23:33:18;21.83;;;6.53;;
38111;SDS011;64011;56.312;44.048;2023-05-29T23:35:20;22.02;;;7.18;;
38111;SDS011;64011;56.312;44.048;2023-05-29T23:37:22;24.45;;;7.30;;